sensor_id;sensor_type;location;lat;lon;timestamp;P1;durP1;ratioP1;P2;durP2;ratioP2
19107;SDS011;9686;48.832;9.126;2023-01-30T00:01:23;16.63;;;9.80;;
19107;SDS011;9686;48.832;9.126;2023-01-30T00:03:50;13.20;;;8.67;;
19107;SDS011;9686;48.832;9.126;2023-01-30T00:06:16;12.30;;;9.47;;
19107;SDS011;9686;48.832;9.126;2023-01-30T00:08:41;13.27;;;8.67;;
19107;SDS011;9686;48.832;9.126;2023-01-30T00:11:08;13.40;;;9.77;;
19107;SDS011;9686;48.832;9.126;2023-01-30T00:13:35;16.07;;;9.50;;
19107;SDS011;9686;48.832;9.126;2023-01-30T00:16:01;14.57;;;9.60;;
19107;SDS011;9686;48.832;9.126;2023-01-30T00:18:27;14.63;;;9.83;;
19107;SDS011;9686;48.832;9.126;2023-01-30T00:20:56;16.37;;;10.10;;
19107;SDS011;9686;48.832;9.126;2023-01-30T00:23:27;14.53;;;9.53;;
19107;SDS011;9686;48.832;9.126;2023-01-30T00:25:53;15.77;;;10.33;;
19107;SDS011;9686;48.832;9.126;2023-01-30T00:28:19;14.63;;;9.40;;
19107;SDS011;9686;48.832;9.126;2023-01-30T00:30:46;13.40;;;9.17;;
19107;SDS011;9686;48.832;9.126;2023-01-30T00:33:12;15.87;;;9.57;;
19107;SDS011;9686;48.832;9.126;2023-01-30T00:35:42;12.97;;;8.60;;
19107;SDS011;9686;48.832;9.126;2023-01-30T00:38:08;15.80;;;9.17;;
19107;SDS011;9686;48.832;9.126;2023-01-30T00:40:34;14.03;;;8.27;;
19107;SDS011;9686;48.832;9.126;2023-01-30T00:42:59;17.47;;;9.63;;
19107;SDS011;9686;48.832;9.126;2023-01-30T00:45:43;15.50;;;8.87;;
19107;SDS011;9686;48.832;9.126;2023-01-30T00:48:27;14.03;;;9.03;;
19107;SDS011;9686;48.832;9.126;2023-01-30T00:50:53;12.67;;;9.07;;
19107;SDS011;9686;48.832;9.126;2023-01-30T00:53:18;14.60;;;9.67;;
19107;SDS011;9686;48.832;9.126;2023-01-30T00:55:44;16.10;;;9.93;;
19107;SDS011;9686;48.832;9.126;2023-01-30T00:58:09;16.27;;;9.90;;
19107;SDS011;9686;48.832;9.126;2023-01-30T01:00:35;14.37;;;9.63;;
19107;SDS011;9686;48.832;9.126;2023-01-30T01:03:01;15.63;;;10.13;;
19107;SDS011;9686;48.832;9.126;2023-01-30T01:05:26;13.93;;;9.40;;
19107;SDS011;9686;48.832;9.126;2023-01-30T01:07:52;15.20;;;9.67;;
19107;SDS011;9686;48.832;9.126;2023-01-30T01:10:18;15.87;;;9.13;;
19107;SDS011;9686;48.832;9.126;2023-01-30T01:12:44;16.50;;;9.43;;
19107;SDS011;9686;48.832;9.126;2023-01-30T01:15:10;14.00;;;9.23;;
19107;SDS011;9686;48.832;9.126;2023-01-30T01:17:37;14.50;;;9.57;;
19107;SDS011;9686;48.832;9.126;2023-01-30T01:20:04;15.93;;;8.83;;
19107;SDS011;9686;48.832;9.126;2023-01-30T01:22:30;17.80;;;9.47;;
19107;SDS011;9686;48.832;9.126;2023-01-30T01:24:55;14.40;;;9.10;;
19107;SDS011;9686;48.832;9.126;2023-01-30T01:27:21;14.90;;;9.67;;
19107;SDS011;9686;48.832;9.126;2023-01-30T01:29:46;15.63;;;9.27;;
19107;SDS011;9686;48.832;9.126;2023-01-30T01:32:11;13.33;;;9.17;;
19107;SDS011;9686;48.832;9.126;2023-01-30T01:34:36;15.60;;;9.40;;
19107;SDS011;9686;48.832;9.126;2023-01-30T01:37:02;15.33;;;9.33;;
19107;SDS011;9686;48.832;9.126;2023-01-30T01:39:27;15.07;;;9.17;;
19107;SDS011;9686;48.832;9.126;2023-01-30T01:42:12;14.27;;;9.03;;
19107;SDS011;9686;48.832;9.126;2023-01-30T01:47:40;12.70;;;8.73;;
19107;SDS011;9686;48.832;9.126;2023-01-30T01:50:12;18.47;;;8.80;;
19107;SDS011;9686;48.832;9.126;2023-01-30T01:52:45;14.70;;;9.07;;
19107;SDS011;9686;48.832;9.126;2023-01-30T01:55:13;15.93;;;9.40;;
19107;SDS011;9686;48.832;9.126;2023-01-30T01:57:41;15.70;;;9.50;;
19107;SDS011;9686;48.832;9.126;2023-01-30T02:00:21;13.47;;;8.80;;
19107;SDS011;9686;48.832;9.126;2023-01-30T02:02:58;12.43;;;8.97;;
19107;SDS011;9686;48.832;9.126;2023-01-30T02:05:26;15.37;;;9.23;;
19107;SDS011;9686;48.832;9.126;2023-01-30T02:10:45;13.23;;;8.97;;
19107;SDS011;9686;48.832;9.126;2023-01-30T02:13:17;16.63;;;9.83;;
19107;SDS011;9686;48.832;9.126;2023-01-30T02:15:42;13.17;;;8.97;;
19107;SDS011;9686;48.832;9.126;2023-01-30T02:18:08;13.10;;;9.57;;
19107;SDS011;9686;48.832;9.126;2023-01-30T02:35:16;12.03;;;8.10;;
19107;SDS011;9686;48.832;9.126;2023-01-30T02:43:16;15.40;;;10.03;;
19107;SDS011;9686;48.832;9.126;2023-01-30T02:48:16;18.63;;;10.80;;
19107;SDS011;9686;48.832;9.126;2023-01-30T02:50:49;15.30;;;10.10;;
19107;SDS011;9686;48.832;9.126;2023-01-30T02:53:19;16.87;;;10.23;;
19107;SDS011;9686;48.832;9.126;2023-01-30T02:55:44;13.50;;;9.00;;
19107;SDS011;9686;48.832;9.126;2023-01-30T02:58:10;15.17;;;9.47;;
19107;SDS011;9686;48.832;9.126;2023-01-30T03:05:44;15.70;;;9.07;;
19107;SDS011;9686;48.832;9.126;2023-01-30T03:08:28;14.57;;;9.20;;
19107;SDS011;9686;48.832;9.126;2023-01-30T03:16:16;12.97;;;9.23;;
19107;SDS011;9686;48.832;9.126;2023-01-30T03:18:46;11.67;;;8.50;;
19107;SDS011;9686;48.832;9.126;2023-01-30T03:21:12;13.00;;;8.77;;
19107;SDS011;9686;48.832;9.126;2023-01-30T03:23:37;14.03;;;8.97;;
19107;SDS011;9686;48.832;9.126;2023-01-30T03:26:03;11.37;;;7.70;;
19107;SDS011;9686;48.832;9.126;2023-01-30T03:28:32;12.00;;;7.93;;
19107;SDS011;9686;48.832;9.126;2023-01-30T03:30:58;11.90;;;7.67;;
19107;SDS011;9686;48.832;9.126;2023-01-30T03:33:24;12.67;;;7.67;;
19107;SDS011;9686;48.832;9.126;2023-01-30T03:35:49;11.60;;;8.50;;
19107;SDS011;9686;48.832;9.126;2023-01-30T03:38:15;13.80;;;7.97;;
19107;SDS011;9686;48.832;9.126;2023-01-30T03:40:41;12.13;;;8.07;;
19107;SDS011;9686;48.832;9.126;2023-01-30T03:43:06;11.83;;;7.70;;
19107;SDS011;9686;48.832;9.126;2023-01-30T03:45:31;13.23;;;8.40;;
19107;SDS011;9686;48.832;9.126;2023-01-30T03:47:57;12.40;;;8.47;;
19107;SDS011;9686;48.832;9.126;2023-01-30T03:50:22;11.23;;;7.50;;
19107;SDS011;9686;48.832;9.126;2023-01-30T03:52:48;10.30;;;7.07;;
19107;SDS011;9686;48.832;9.126;2023-01-30T03:55:13;9.07;;;6.63;;
19107;SDS011;9686;48.832;9.126;2023-01-30T03:57:38;12.13;;;7.53;;
19107;SDS011;9686;48.832;9.126;2023-01-30T04:00:04;10.07;;;6.97;;
19107;SDS011;9686;48.832;9.126;2023-01-30T04:02:29;10.53;;;6.97;;
19107;SDS011;9686;48.832;9.126;2023-01-30T04:04:55;12.73;;;7.03;;
19107;SDS011;9686;48.832;9.126;2023-01-30T04:07:20;11.80;;;7.33;;
19107;SDS011;9686;48.832;9.126;2023-01-30T04:09:45;11.17;;;7.47;;
19107;SDS011;9686;48.832;9.126;2023-01-30T04:12:10;11.93;;;7.53;;
19107;SDS011;9686;48.832;9.126;2023-01-30T04:14:36;12.37;;;7.50;;
19107;SDS011;9686;48.832;9.126;2023-01-30T04:17:01;12.70;;;7.27;;
19107;SDS011;9686;48.832;9.126;2023-01-30T04:19:26;8.70;;;6.40;;
19107;SDS011;9686;48.832;9.126;2023-01-30T04:21:52;10.60;;;7.30;;
19107;SDS011;9686;48.832;9.126;2023-01-30T04:24:17;11.80;;;7.23;;
19107;SDS011;9686;48.832;9.126;2023-01-30T04:26:42;10.50;;;6.67;;
19107;SDS011;9686;48.832;9.126;2023-01-30T04:29:08;8.43;;;6.80;;
19107;SDS011;9686;48.832;9.126;2023-01-30T04:31:33;9.53;;;6.23;;
19107;SDS011;9686;48.832;9.126;2023-01-30T04:33:58;10.70;;;7.07;;
19107;SDS011;9686;48.832;9.126;2023-01-30T04:36:23;9.20;;;6.17;;
19107;SDS011;9686;48.832;9.126;2023-01-30T04:38:49;9.80;;;6.53;;
19107;SDS011;9686;48.832;9.126;2023-01-30T04:41:14;11.10;;;6.43;;
19107;SDS011;9686;48.832;9.126;2023-01-30T04:43:40;9.63;;;7.27;;
19107;SDS011;9686;48.832;9.126;2023-01-30T04:46:05;8.40;;;6.93;;
19107;SDS011;9686;48.832;9.126;2023-01-30T04:48:30;8.80;;;6.57;;
19107;SDS011;9686;48.832;9.126;2023-01-30T04:50:56;9.43;;;6.00;;
19107;SDS011;9686;48.832;9.126;2023-01-30T04:53:22;8.03;;;5.97;;
19107;SDS011;9686;48.832;9.126;2023-01-30T04:55:48;10.17;;;6.37;;
19107;SDS011;9686;48.832;9.126;2023-01-30T04:58:14;8.57;;;6.03;;
19107;SDS011;9686;48.832;9.126;2023-01-30T05:00:40;9.93;;;6.17;;
19107;SDS011;9686;48.832;9.126;2023-01-30T05:03:06;9.17;;;5.87;;
19107;SDS011;9686;48.832;9.126;2023-01-30T05:05:31;10.40;;;5.30;;
19107;SDS011;9686;48.832;9.126;2023-01-30T05:07:57;8.23;;;5.87;;
19107;SDS011;9686;48.832;9.126;2023-01-30T05:10:22;8.67;;;5.70;;
19107;SDS011;9686;48.832;9.126;2023-01-30T05:12:47;9.47;;;5.90;;
19107;SDS011;9686;48.832;9.126;2023-01-30T05:15:13;8.20;;;6.03;;
19107;SDS011;9686;48.832;9.126;2023-01-30T05:17:39;8.37;;;6.00;;
19107;SDS011;9686;48.832;9.126;2023-01-30T05:20:05;9.17;;;6.37;;
19107;SDS011;9686;48.832;9.126;2023-01-30T05:22:32;8.13;;;5.67;;
19107;SDS011;9686;48.832;9.126;2023-01-30T05:24:57;7.83;;;5.30;;
19107;SDS011;9686;48.832;9.126;2023-01-30T05:27:23;7.63;;;5.67;;
19107;SDS011;9686;48.832;9.126;2023-01-30T05:29:48;6.63;;;4.97;;
19107;SDS011;9686;48.832;9.126;2023-01-30T05:32:14;8.97;;;5.57;;
19107;SDS011;9686;48.832;9.126;2023-01-30T05:34:40;7.83;;;6.03;;
19107;SDS011;9686;48.832;9.126;2023-01-30T05:37:06;8.37;;;5.40;;
19107;SDS011;9686;48.832;9.126;2023-01-30T05:39:31;7.97;;;5.10;;
19107;SDS011;9686;48.832;9.126;2023-01-30T05:41:57;8.17;;;5.37;;
19107;SDS011;9686;48.832;9.126;2023-01-30T05:44:22;9.57;;;5.97;;
19107;SDS011;9686;48.832;9.126;2023-01-30T05:46:47;9.27;;;6.57;;
19107;SDS011;9686;48.832;9.126;2023-01-30T05:49:13;8.73;;;5.57;;
19107;SDS011;9686;48.832;9.126;2023-01-30T05:51:38;8.67;;;6.17;;
19107;SDS011;9686;48.832;9.126;2023-01-30T05:54:04;9.13;;;6.00;;
19107;SDS011;9686;48.832;9.126;2023-01-30T05:56:29;7.83;;;5.80;;
19107;SDS011;9686;48.832;9.126;2023-01-30T05:58:57;7.43;;;5.37;;
19107;SDS011;9686;48.832;9.126;2023-01-30T06:01:23;10.70;;;6.33;;
19107;SDS011;9686;48.832;9.126;2023-01-30T06:03:49;9.97;;;6.50;;
19107;SDS011;9686;48.832;9.126;2023-01-30T06:06:15;7.97;;;5.67;;
19107;SDS011;9686;48.832;9.126;2023-01-30T06:08:41;7.70;;;5.43;;
19107;SDS011;9686;48.832;9.126;2023-01-30T06:11:07;9.37;;;6.53;;
19107;SDS011;9686;48.832;9.126;2023-01-30T06:13:35;8.43;;;5.40;;
19107;SDS011;9686;48.832;9.126;2023-01-30T06:16:00;8.00;;;5.97;;
19107;SDS011;9686;48.832;9.126;2023-01-30T06:18:26;9.40;;;5.33;;
19107;SDS011;9686;48.832;9.126;2023-01-30T06:20:51;10.63;;;6.00;;
19107;SDS011;9686;48.832;9.126;2023-01-30T06:23:17;7.33;;;5.60;;
19107;SDS011;9686;48.832;9.126;2023-01-30T06:25:44;8.67;;;6.33;;
19107;SDS011;9686;48.832;9.126;2023-01-30T06:28:11;8.20;;;6.17;;
19107;SDS011;9686;48.832;9.126;2023-01-30T06:30:37;8.97;;;6.10;;
19107;SDS011;9686;48.832;9.126;2023-01-30T06:33:02;9.33;;;6.10;;
19107;SDS011;9686;48.832;9.126;2023-01-30T06:35:28;8.13;;;5.67;;
19107;SDS011;9686;48.832;9.126;2023-01-30T06:37:53;8.30;;;5.80;;
19107;SDS011;9686;48.832;9.126;2023-01-30T06:40:18;7.23;;;5.33;;
19107;SDS011;9686;48.832;9.126;2023-01-30T06:42:47;9.30;;;5.73;;
19107;SDS011;9686;48.832;9.126;2023-01-30T06:45:14;10.07;;;6.13;;
19107;SDS011;9686;48.832;9.126;2023-01-30T06:47:58;7.43;;;5.67;;
19107;SDS011;9686;48.832;9.126;2023-01-30T06:50:24;9.17;;;6.17;;
19107;SDS011;9686;48.832;9.126;2023-01-30T06:52:51;9.40;;;5.73;;
19107;SDS011;9686;48.832;9.126;2023-01-30T06:55:19;7.73;;;6.17;;
19107;SDS011;9686;48.832;9.126;2023-01-30T06:57:45;6.70;;;5.70;;
19107;SDS011;9686;48.832;9.126;2023-01-30T07:00:12;9.17;;;5.60;;
19107;SDS011;9686;48.832;9.126;2023-01-30T07:02:39;8.77;;;5.27;;
19107;SDS011;9686;48.832;9.126;2023-01-30T07:05:05;7.20;;;5.57;;
19107;SDS011;9686;48.832;9.126;2023-01-30T07:07:31;8.20;;;5.47;;
19107;SDS011;9686;48.832;9.126;2023-01-30T07:09:57;8.33;;;5.10;;
19107;SDS011;9686;48.832;9.126;2023-01-30T07:12:23;9.50;;;6.23;;
19107;SDS011;9686;48.832;9.126;2023-01-30T07:14:50;8.60;;;5.60;;
19107;SDS011;9686;48.832;9.126;2023-01-30T07:17:17;9.20;;;5.17;;
19107;SDS011;9686;48.832;9.126;2023-01-30T07:19:42;7.77;;;6.17;;
19107;SDS011;9686;48.832;9.126;2023-01-30T07:22:08;9.80;;;5.70;;
19107;SDS011;9686;48.832;9.126;2023-01-30T07:24:34;9.00;;;5.80;;
19107;SDS011;9686;48.832;9.126;2023-01-30T07:26:59;8.13;;;5.87;;
19107;SDS011;9686;48.832;9.126;2023-01-30T07:29:24;8.80;;;6.07;;
19107;SDS011;9686;48.832;9.126;2023-01-30T07:31:50;8.13;;;5.40;;
19107;SDS011;9686;48.832;9.126;2023-01-30T07:34:15;9.40;;;5.63;;
19107;SDS011;9686;48.832;9.126;2023-01-30T07:36:41;9.10;;;5.93;;
19107;SDS011;9686;48.832;9.126;2023-01-30T07:39:06;10.40;;;5.63;;
19107;SDS011;9686;48.832;9.126;2023-01-30T07:41:33;8.03;;;5.17;;
19107;SDS011;9686;48.832;9.126;2023-01-30T07:43:59;8.50;;;5.73;;
19107;SDS011;9686;48.832;9.126;2023-01-30T07:46:24;7.97;;;5.87;;
19107;SDS011;9686;48.832;9.126;2023-01-30T07:48:49;11.37;;;6.37;;
19107;SDS011;9686;48.832;9.126;2023-01-30T07:51:15;6.80;;;5.50;;
19107;SDS011;9686;48.832;9.126;2023-01-30T07:53:40;7.70;;;5.47;;
19107;SDS011;9686;48.832;9.126;2023-01-30T07:56:06;8.20;;;5.73;;
19107;SDS011;9686;48.832;9.126;2023-01-30T07:58:35;7.27;;;5.17;;
19107;SDS011;9686;48.832;9.126;2023-01-30T08:01:00;8.97;;;5.40;;
19107;SDS011;9686;48.832;9.126;2023-01-30T08:03:25;10.40;;;5.70;;
19107;SDS011;9686;48.832;9.126;2023-01-30T08:05:51;9.73;;;5.90;;
19107;SDS011;9686;48.832;9.126;2023-01-30T08:08:17;8.63;;;5.97;;
19107;SDS011;9686;48.832;9.126;2023-01-30T08:10:43;11.13;;;6.27;;
19107;SDS011;9686;48.832;9.126;2023-01-30T08:13:08;8.87;;;6.20;;
19107;SDS011;9686;48.832;9.126;2023-01-30T08:15:34;7.30;;;5.47;;
19107;SDS011;9686;48.832;9.126;2023-01-30T08:17:59;8.40;;;5.50;;
19107;SDS011;9686;48.832;9.126;2023-01-30T08:20:25;8.37;;;5.53;;
19107;SDS011;9686;48.832;9.126;2023-01-30T08:22:52;9.13;;;5.20;;
19107;SDS011;9686;48.832;9.126;2023-01-30T08:25:18;8.67;;;5.73;;
19107;SDS011;9686;48.832;9.126;2023-01-30T08:27:44;8.10;;;5.67;;
19107;SDS011;9686;48.832;9.126;2023-01-30T08:30:09;8.43;;;5.53;;
19107;SDS011;9686;48.832;9.126;2023-01-30T08:32:36;8.83;;;5.83;;
19107;SDS011;9686;48.832;9.126;2023-01-30T08:35:01;13.07;;;6.73;;
19107;SDS011;9686;48.832;9.126;2023-01-30T08:37:27;9.47;;;6.47;;
19107;SDS011;9686;48.832;9.126;2023-01-30T08:39:52;7.77;;;5.27;;
19107;SDS011;9686;48.832;9.126;2023-01-30T08:42:17;7.07;;;4.93;;
19107;SDS011;9686;48.832;9.126;2023-01-30T08:44:43;7.20;;;5.03;;
19107;SDS011;9686;48.832;9.126;2023-01-30T08:47:08;7.10;;;5.10;;
19107;SDS011;9686;48.832;9.126;2023-01-30T08:49:33;8.13;;;5.17;;
19107;SDS011;9686;48.832;9.126;2023-01-30T08:51:59;7.57;;;5.10;;
19107;SDS011;9686;48.832;9.126;2023-01-30T08:54:24;7.27;;;4.77;;
19107;SDS011;9686;48.832;9.126;2023-01-30T08:56:49;5.80;;;4.40;;
19107;SDS011;9686;48.832;9.126;2023-01-30T08:59:15;5.97;;;4.23;;
19107;SDS011;9686;48.832;9.126;2023-01-30T09:01:40;6.07;;;4.17;;
19107;SDS011;9686;48.832;9.126;2023-01-30T09:04:05;9.07;;;4.27;;
19107;SDS011;9686;48.832;9.126;2023-01-30T09:06:31;8.47;;;4.50;;
19107;SDS011;9686;48.832;9.126;2023-01-30T09:08:57;5.87;;;3.80;;
19107;SDS011;9686;48.832;9.126;2023-01-30T09:11:23;4.73;;;3.37;;
19107;SDS011;9686;48.832;9.126;2023-01-30T09:13:48;5.97;;;3.93;;
19107;SDS011;9686;48.832;9.126;2023-01-30T09:16:13;5.27;;;3.60;;
19107;SDS011;9686;48.832;9.126;2023-01-30T09:18:39;3.70;;;2.80;;
19107;SDS011;9686;48.832;9.126;2023-01-30T09:21:07;5.13;;;3.57;;
19107;SDS011;9686;48.832;9.126;2023-01-30T09:23:33;5.43;;;3.50;;
19107;SDS011;9686;48.832;9.126;2023-01-30T09:25:59;6.90;;;3.40;;
19107;SDS011;9686;48.832;9.126;2023-01-30T09:28:25;4.97;;;3.37;;
19107;SDS011;9686;48.832;9.126;2023-01-30T09:30:50;5.60;;;3.83;;
19107;SDS011;9686;48.832;9.126;2023-01-30T09:33:16;5.33;;;3.97;;
19107;SDS011;9686;48.832;9.126;2023-01-30T09:35:45;3.47;;;3.00;;
19107;SDS011;9686;48.832;9.126;2023-01-30T09:38:12;5.47;;;3.97;;
19107;SDS011;9686;48.832;9.126;2023-01-30T09:40:37;7.83;;;3.70;;
19107;SDS011;9686;48.832;9.126;2023-01-30T09:48:57;5.73;;;4.37;;
19107;SDS011;9686;48.832;9.126;2023-01-30T09:51:34;6.57;;;3.80;;
19107;SDS011;9686;48.832;9.126;2023-01-30T09:54:18;7.03;;;3.80;;
19107;SDS011;9686;48.832;9.126;2023-01-30T09:56:57;5.03;;;3.63;;
19107;SDS011;9686;48.832;9.126;2023-01-30T09:59:44;6.20;;;3.57;;
19107;SDS011;9686;48.832;9.126;2023-01-30T10:04:59;5.03;;;3.03;;
19107;SDS011;9686;48.832;9.126;2023-01-30T10:13:17;4.23;;;2.63;;
19107;SDS011;9686;48.832;9.126;2023-01-30T10:21:46;4.37;;;3.07;;
19107;SDS011;9686;48.832;9.126;2023-01-30T10:24:24;4.73;;;3.20;;
19107;SDS011;9686;48.832;9.126;2023-01-30T10:27:02;4.30;;;3.07;;
19107;SDS011;9686;48.832;9.126;2023-01-30T10:29:35;3.80;;;3.07;;
19107;SDS011;9686;48.832;9.126;2023-01-30T10:32:04;4.63;;;2.80;;
19107;SDS011;9686;48.832;9.126;2023-01-30T10:34:39;4.17;;;3.10;;
19107;SDS011;9686;48.832;9.126;2023-01-30T10:43:00;7.20;;;2.80;;
19107;SDS011;9686;48.832;9.126;2023-01-30T10:48:23;2.77;;;2.20;;
19107;SDS011;9686;48.832;9.126;2023-01-30T10:51:27;2.77;;;1.93;;
19107;SDS011;9686;48.832;9.126;2023-01-30T10:54:06;2.23;;;2.03;;
19107;SDS011;9686;48.832;9.126;2023-01-30T10:56:43;3.10;;;1.97;;
19107;SDS011;9686;48.832;9.126;2023-01-30T10:59:22;3.03;;;1.83;;
19107;SDS011;9686;48.832;9.126;2023-01-30T11:01:58;2.10;;;1.73;;
19107;SDS011;9686;48.832;9.126;2023-01-30T11:04:35;2.93;;;1.80;;
19107;SDS011;9686;48.832;9.126;2023-01-30T11:07:10;2.37;;;1.70;;
19107;SDS011;9686;48.832;9.126;2023-01-30T11:09:42;2.23;;;1.60;;
19107;SDS011;9686;48.832;9.126;2023-01-30T11:12:09;2.57;;;1.53;;
19107;SDS011;9686;48.832;9.126;2023-01-30T11:14:52;3.60;;;2.10;;
19107;SDS011;9686;48.832;9.126;2023-01-30T11:17:18;2.63;;;1.60;;
19107;SDS011;9686;48.832;9.126;2023-01-30T11:19:52;1.90;;;1.60;;
19107;SDS011;9686;48.832;9.126;2023-01-30T11:22:19;1.57;;;1.47;;
19107;SDS011;9686;48.832;9.126;2023-01-30T11:24:45;2.90;;;1.73;;
19107;SDS011;9686;48.832;9.126;2023-01-30T11:29:49;2.17;;;1.80;;
19107;SDS011;9686;48.832;9.126;2023-01-30T11:32:26;2.80;;;1.93;;
19107;SDS011;9686;48.832;9.126;2023-01-30T11:37:31;4.87;;;2.27;;
19107;SDS011;9686;48.832;9.126;2023-01-30T11:39:58;2.03;;;1.77;;
19107;SDS011;9686;48.832;9.126;2023-01-30T11:42:24;4.40;;;2.30;;
19107;SDS011;9686;48.832;9.126;2023-01-30T11:44:56;2.90;;;2.27;;
19107;SDS011;9686;48.832;9.126;2023-01-30T11:47:24;1.97;;;1.80;;
19107;SDS011;9686;48.832;9.126;2023-01-30T11:49:52;8.03;;;2.70;;
19107;SDS011;9686;48.832;9.126;2023-01-30T11:52:34;5.10;;;2.20;;
19107;SDS011;9686;48.832;9.126;2023-01-30T11:55:02;2.03;;;1.70;;
19107;SDS011;9686;48.832;9.126;2023-01-30T11:57:50;3.00;;;2.10;;
19107;SDS011;9686;48.832;9.126;2023-01-30T12:00:23;3.53;;;2.37;;
19107;SDS011;9686;48.832;9.126;2023-01-30T12:02:53;4.30;;;2.07;;
19107;SDS011;9686;48.832;9.126;2023-01-30T12:05:29;3.27;;;2.30;;
19107;SDS011;9686;48.832;9.126;2023-01-30T12:10:46;3.13;;;2.10;;
19107;SDS011;9686;48.832;9.126;2023-01-30T12:13:19;4.23;;;2.30;;
19107;SDS011;9686;48.832;9.126;2023-01-30T12:15:49;5.43;;;2.90;;
19107;SDS011;9686;48.832;9.126;2023-01-30T12:18:23;2.63;;;2.43;;
19107;SDS011;9686;48.832;9.126;2023-01-30T12:21:07;5.57;;;2.60;;
19107;SDS011;9686;48.832;9.126;2023-01-30T12:23:43;4.70;;;2.93;;
19107;SDS011;9686;48.832;9.126;2023-01-30T12:26:20;4.03;;;2.40;;
19107;SDS011;9686;48.832;9.126;2023-01-30T12:32:05;3.83;;;2.50;;
19107;SDS011;9686;48.832;9.126;2023-01-30T12:34:37;5.80;;;3.07;;
19107;SDS011;9686;48.832;9.126;2023-01-30T12:45:10;4.00;;;2.67;;
19107;SDS011;9686;48.832;9.126;2023-01-30T12:50:23;5.60;;;2.90;;
19107;SDS011;9686;48.832;9.126;2023-01-30T12:55:56;4.00;;;2.90;;
19107;SDS011;9686;48.832;9.126;2023-01-30T13:04:12;5.43;;;3.23;;
19107;SDS011;9686;48.832;9.126;2023-01-30T13:07:12;4.03;;;2.80;;
19107;SDS011;9686;48.832;9.126;2023-01-30T13:10:06;3.87;;;2.33;;
19107;SDS011;9686;48.832;9.126;2023-01-30T13:23:15;1.83;;;1.73;;
19107;SDS011;9686;48.832;9.126;2023-01-30T13:25:46;2.90;;;2.00;;
19107;SDS011;9686;48.832;9.126;2023-01-30T13:28:27;2.63;;;1.83;;
19107;SDS011;9686;48.832;9.126;2023-01-30T13:30:57;1.80;;;1.67;;
19107;SDS011;9686;48.832;9.126;2023-01-30T13:33:27;2.80;;;1.20;;
19107;SDS011;9686;48.832;9.126;2023-01-30T13:38:39;1.13;;;0.80;;
19107;SDS011;9686;48.832;9.126;2023-01-30T13:41:13;0.97;;;0.87;;
19107;SDS011;9686;48.832;9.126;2023-01-30T13:43:43;1.00;;;0.90;;
19107;SDS011;9686;48.832;9.126;2023-01-30T13:46:16;1.47;;;1.30;;
19107;SDS011;9686;48.832;9.126;2023-01-30T13:51:32;1.30;;;1.20;;
19107;SDS011;9686;48.832;9.126;2023-01-30T13:54:10;1.70;;;1.43;;
19107;SDS011;9686;48.832;9.126;2023-01-30T14:02:24;2.10;;;1.47;;
19107;SDS011;9686;48.832;9.126;2023-01-30T14:10:12;3.40;;;2.20;;
19107;SDS011;9686;48.832;9.126;2023-01-30T14:12:48;2.63;;;2.10;;
19107;SDS011;9686;48.832;9.126;2023-01-30T14:20:34;2.87;;;1.73;;
19107;SDS011;9686;48.832;9.126;2023-01-30T14:23:17;1.70;;;1.53;;
19107;SDS011;9686;48.832;9.126;2023-01-30T14:25:49;1.40;;;1.30;;
19107;SDS011;9686;48.832;9.126;2023-01-30T14:31:00;2.30;;;1.83;;
19107;SDS011;9686;48.832;9.126;2023-01-30T14:38:30;1.77;;;1.50;;
19107;SDS011;9686;48.832;9.126;2023-01-30T14:43:45;1.93;;;1.73;;
19107;SDS011;9686;48.832;9.126;2023-01-30T15:01:55;3.93;;;2.30;;
19107;SDS011;9686;48.832;9.126;2023-01-30T15:04:23;4.23;;;2.10;;
19107;SDS011;9686;48.832;9.126;2023-01-30T15:06:51;4.00;;;2.40;;
19107;SDS011;9686;48.832;9.126;2023-01-30T15:09:18;4.50;;;2.57;;
19107;SDS011;9686;48.832;9.126;2023-01-30T15:11:47;2.90;;;2.50;;
19107;SDS011;9686;48.832;9.126;2023-01-30T15:17:44;7.03;;;2.77;;
19107;SDS011;9686;48.832;9.126;2023-01-30T15:26:12;3.90;;;2.87;;
19107;SDS011;9686;48.832;9.126;2023-01-30T15:31:53;3.63;;;2.60;;
19107;SDS011;9686;48.832;9.126;2023-01-30T15:34:23;5.07;;;2.93;;
19107;SDS011;9686;48.832;9.126;2023-01-30T15:36:53;3.77;;;2.30;;
19107;SDS011;9686;48.832;9.126;2023-01-30T15:39:19;5.67;;;2.63;;
19107;SDS011;9686;48.832;9.126;2023-01-30T15:41:47;4.57;;;2.60;;
19107;SDS011;9686;48.832;9.126;2023-01-30T15:44:38;4.43;;;3.10;;
19107;SDS011;9686;48.832;9.126;2023-01-30T15:47:20;4.17;;;3.20;;
19107;SDS011;9686;48.832;9.126;2023-01-30T15:52:33;3.97;;;3.17;;
19107;SDS011;9686;48.832;9.126;2023-01-30T15:55:02;4.40;;;3.40;;
19107;SDS011;9686;48.832;9.126;2023-01-30T15:57:34;4.37;;;2.60;;
19107;SDS011;9686;48.832;9.126;2023-01-30T16:00:05;4.60;;;3.57;;
19107;SDS011;9686;48.832;9.126;2023-01-30T16:02:34;5.33;;;3.03;;
19107;SDS011;9686;48.832;9.126;2023-01-30T16:05:19;3.40;;;2.83;;
19107;SDS011;9686;48.832;9.126;2023-01-30T16:07:47;5.77;;;3.37;;
19107;SDS011;9686;48.832;9.126;2023-01-30T16:10:17;4.93;;;3.37;;
19107;SDS011;9686;48.832;9.126;2023-01-30T16:12:44;3.87;;;2.93;;
19107;SDS011;9686;48.832;9.126;2023-01-30T16:17:39;7.10;;;4.07;;
19107;SDS011;9686;48.832;9.126;2023-01-30T16:20:10;4.77;;;3.27;;
19107;SDS011;9686;48.832;9.126;2023-01-30T16:22:40;5.03;;;2.97;;
19107;SDS011;9686;48.832;9.126;2023-01-30T16:25:14;3.03;;;2.70;;
19107;SDS011;9686;48.832;9.126;2023-01-30T16:27:44;4.53;;;2.87;;
19107;SDS011;9686;48.832;9.126;2023-01-30T16:30:12;4.73;;;3.17;;
19107;SDS011;9686;48.832;9.126;2023-01-30T16:32:45;8.57;;;3.53;;
19107;SDS011;9686;48.832;9.126;2023-01-30T16:37:47;4.63;;;3.10;;
19107;SDS011;9686;48.832;9.126;2023-01-30T16:40:14;5.73;;;3.50;;
19107;SDS011;9686;48.832;9.126;2023-01-30T16:53:22;4.07;;;3.47;;
19107;SDS011;9686;48.832;9.126;2023-01-30T16:55:55;6.10;;;3.60;;
19107;SDS011;9686;48.832;9.126;2023-01-30T16:58:23;6.03;;;3.20;;
19107;SDS011;9686;48.832;9.126;2023-01-30T17:00:56;4.00;;;2.90;;
19107;SDS011;9686;48.832;9.126;2023-01-30T17:03:48;3.73;;;2.83;;
19107;SDS011;9686;48.832;9.126;2023-01-30T17:06:20;4.23;;;3.23;;
19107;SDS011;9686;48.832;9.126;2023-01-30T17:08:50;6.40;;;3.30;;
19107;SDS011;9686;48.832;9.126;2023-01-30T17:11:31;5.70;;;3.07;;
19107;SDS011;9686;48.832;9.126;2023-01-30T17:16:46;4.80;;;3.60;;
19107;SDS011;9686;48.832;9.126;2023-01-30T17:19:23;6.00;;;3.30;;
19107;SDS011;9686;48.832;9.126;2023-01-30T17:21:49;3.33;;;2.73;;
19107;SDS011;9686;48.832;9.126;2023-01-30T17:24:17;4.60;;;3.13;;
19107;SDS011;9686;48.832;9.126;2023-01-30T17:26:44;3.80;;;3.10;;
19107;SDS011;9686;48.832;9.126;2023-01-30T17:29:13;3.63;;;2.90;;
19107;SDS011;9686;48.832;9.126;2023-01-30T17:31:41;4.10;;;2.93;;
19107;SDS011;9686;48.832;9.126;2023-01-30T17:34:12;4.27;;;3.20;;
19107;SDS011;9686;48.832;9.126;2023-01-30T17:36:37;4.67;;;3.20;;
19107;SDS011;9686;48.832;9.126;2023-01-30T17:39:04;6.17;;;3.50;;
19107;SDS011;9686;48.832;9.126;2023-01-30T17:41:35;7.20;;;2.97;;
19107;SDS011;9686;48.832;9.126;2023-01-30T17:44:01;5.97;;;3.77;;
19107;SDS011;9686;48.832;9.126;2023-01-30T17:49:00;6.03;;;3.67;;
19107;SDS011;9686;48.832;9.126;2023-01-30T17:51:26;5.33;;;3.70;;
19107;SDS011;9686;48.832;9.126;2023-01-30T17:53:51;7.90;;;3.67;;
19107;SDS011;9686;48.832;9.126;2023-01-30T17:56:18;9.20;;;3.80;;
19107;SDS011;9686;48.832;9.126;2023-01-30T17:58:47;4.70;;;3.23;;
19107;SDS011;9686;48.832;9.126;2023-01-30T18:01:14;3.67;;;3.00;;
19107;SDS011;9686;48.832;9.126;2023-01-30T18:03:42;6.43;;;3.20;;
19107;SDS011;9686;48.832;9.126;2023-01-30T18:06:09;4.83;;;3.50;;
19107;SDS011;9686;48.832;9.126;2023-01-30T18:08:36;5.87;;;3.43;;
19107;SDS011;9686;48.832;9.126;2023-01-30T18:11:02;5.23;;;3.57;;
19107;SDS011;9686;48.832;9.126;2023-01-30T18:13:27;4.53;;;2.90;;
19107;SDS011;9686;48.832;9.126;2023-01-30T18:15:52;4.93;;;3.40;;
19107;SDS011;9686;48.832;9.126;2023-01-30T18:18:23;4.43;;;3.20;;
19107;SDS011;9686;48.832;9.126;2023-01-30T18:20:49;4.00;;;3.00;;